Priv.Wetterstation: Nettetal-Kaldenkirchen
Wetterdaten: aktuell Sonntag, 17.10.2021 09:10
Datum Zeit Temp. A.2,5m Temp. (1,3m) TempAmin2,5m TempAmax2,5m BodenTemp-60 Temp (+5cm) FeuchteA2,5m Feuchte 1,3m BlattFeu1,3m BodFeucht-60 Luftdruck Regen (2,9m) Wind (3,8m) Richtung3,8m Richtung3,8m Sonnenschein ET UV (2,9m) Solar (2,9m) Taupunkt Windchill Windben3,8m Empfang
17.10.2021 09:10 5,2 C 5,0 C 5,0 C 5,2 C 12,8 C 5,6 C 94 % 94 % 15 lf 179 cb 1020,3 hPa 0,0 mm 0,0 km/h (0 Bft) O 101 0 min 0,000 mm 0,0 UV-I 30 W/m 4,3 C 5,2 C 0,0 km/h (0 Bft) 97 %
17.10.2021 09:00 5,0 C 4,4 C 4,9 C 5,0 C 12,8 C 5,6 C 93 % 94 % 15 lf 179 cb 1020,3 hPa 0,0 mm 0,0 km/h (0 Bft) O 101 0 min 0,000 mm 0,0 UV-I 31 W/m 4,0 C 5,0 C 0,0 km/h (0 Bft) 98 %
17.10.2021 08:50 4,9 C 4,4 C 4,8 C 4,9 C 12,8 C 5,6 C 93 % 94 % 15 lf 179 cb 1020,4 hPa 0,0 mm 0,0 km/h (0 Bft) O 101 0 min 0,000 mm 0,0 UV-I 24 W/m 3,9 C 4,9 C 0,0 km/h (0 Bft) 97 %
17.10.2021 08:40 4,8 C 4,4 C 4,7 C 4,8 C 12,8 C 5,0 C 93 % 93 % 15 lf 179 cb 1020,1 hPa 0,0 mm 0,0 km/h (0 Bft) O 101 0 min 0,000 mm 0,0 UV-I 15 W/m 3,8 C 4,8 C 0,0 km/h (0 Bft) 97 %
17.10.2021 08:30 4,7 C 4,4 C 4,7 C 4,7 C 12,8 C 4,4 C 93 % 93 % 15 lf 179 cb 1020,3 hPa 0,0 mm 0,0 km/h (0 Bft) O 101 0 min 0,000 mm 0,0 UV-I 11 W/m 3,7 C 4,7 C 0,0 km/h (0 Bft) 97 %
17.10.2021 08:20 4,7 C 4,4 C 4,7 C 4,8 C 12,8 C 4,4 C 93 % 93 % 15 lf 179 cb 1019,8 hPa 0,0 mm 0,0 km/h (0 Bft) O 101 0 min 0,000 mm 0,0 UV-I 6 W/m 3,7 C 4,7 C 0,0 km/h (0 Bft) 96 %
17.10.2021 08:10 4,7 C 4,4 C 4,7 C 4,7 C 12,8 C 3,9 C 93 % 93 % 15 lf 179 cb 1019,6 hPa 0,0 mm 0,2 km/h (0 Bft) O 101 0 min 0,000 mm 0,0 UV-I 0 W/m 3,7 C 4,7 C 4,1 km/h (1 Bft) 97 %
17.10.2021 08:00 4,7 C 4,4 C 4,7 C 4,7 C 12,8 C 3,9 C 93 % 93 % 15 lf 179 cb 1019,6 hPa 0,0 mm 0,0 km/h (0 Bft) O 101 0 min 0,000 mm 0,0 UV-I 0 W/m 3,7 C 4,7 C 0,0 km/h (0 Bft) 96 %
17.10.2021 07:50 4,7 C 4,4 C 4,7 C 4,7 C 12,8 C 3,9 C 93 % 94 % 15 lf 179 cb 1019,6 hPa 0,0 mm 0,1 km/h (0 Bft) O 101 0 min 0,000 mm 0,0 UV-I 0 W/m 3,7 C 4,7 C 4,1 km/h (1 Bft) 98 %
17.10.2021 07:40 4,7 C 4,4 C 4,6 C 4,7 C 12,8 C 4,4 C 93 % 94 % 15 lf 179 cb 1019,6 hPa 0,0 mm 0,1 km/h (0 Bft) O 101 0 min 0,000 mm 0,0 UV-I 0 W/m 3,7 C 4,7 C 2,1 km/h (1 Bft) 97 %
17.10.2021 07:30 4,6 C 4,4 C 4,5 C 4,6 C 12,8 C 4,4 C 93 % 94 % 15 lf 178 cb 1019,6 hPa 0,0 mm 0,0 km/h (0 Bft) O 101 0 min 0,000 mm 0,0 UV-I 0 W/m 3,6 C 4,6 C 0,0 km/h (0 Bft) 97 %
17.10.2021 07:20 4,5 C 4,4 C 4,4 C 4,5 C 12,8 C 4,4 C 93 % 93 % 15 lf 178 cb 1019,5 hPa 0,0 mm 0,1 km/h (0 Bft) O 101 0 min 0,000 mm 0,0 UV-I 0 W/m 3,5 C 4,5 C 2,1 km/h (1 Bft) 97 %
17.10.2021 07:10 4,4 C 3,9 C 4,4 C 4,4 C 12,8 C 4,4 C 93 % 93 % 15 lf 178 cb 1019,5 hPa 0,0 mm 0,3 km/h (0 Bft) O 101 0 min 0,000 mm 0,0 UV-I 0 W/m 3,4 C 4,4 C 2,1 km/h (1 Bft) 97 %
17.10.2021 07:00 4,4 C 3,9 C 4,3 C 4,4 C 12,8 C 4,4 C 93 % 93 % 15 lf 178 cb 1019,5 hPa 0,0 mm 0,5 km/h (0 Bft) O 101 0 min 0,000 mm 0,0 UV-I 0 W/m 3,4 C 4,4 C 4,1 km/h (1 Bft) 97 %
17.10.2021 06:50 4,3 C 3,9 C 4,2 C 4,3 C 12,8 C 3,9 C 93 % 93 % 15 lf 178 cb 1019,4 hPa 0,0 mm 2,4 km/h (1 Bft) O 101 0 min 0,000 mm 0,0 UV-I 0 W/m 3,3 C 4,3 C 4,1 km/h (1 Bft) 97 %
17.10.2021 06:40 4,2 C 3,9 C 4,1 C 4,2 C 12,8 C 3,9 C 93 % 93 % 15 lf 178 cb 1019,5 hPa 0,0 mm 0,8 km/h (0 Bft) O 101 0 min 0,000 mm 0,0 UV-I 0 W/m 3,2 C 4,2 C 4,1 km/h (1 Bft) 98 %
17.10.2021 06:30 4,1 C 3,9 C 4,1 C 4,1 C 12,8 C 3,9 C 92 % 93 % 15 lf 178 cb 1019,4 hPa 0,0 mm 0,0 km/h (0 Bft) O 101 0 min 0,000 mm 0,0 UV-I 0 W/m 2,9 C 4,1 C 0,0 km/h (0 Bft) 97 %
17.10.2021 06:20 4,1 C 3,9 C 4,1 C 4,1 C 12,8 C 3,9 C 92 % 93 % 15 lf 178 cb 1019,5 hPa 0,0 mm 0,0 km/h (0 Bft) O 101 0 min 0,000 mm 0,0 UV-I 0 W/m 2,9 C 4,1 C 0,0 km/h (0 Bft) 98 %
17.10.2021 06:10 4,1 C 3,9 C 4,1 C 4,2 C 12,8 C 3,9 C 92 % 93 % 15 lf 178 cb 1019,5 hPa 0,0 mm 0,0 km/h (0 Bft) O 101 0 min 0,000 mm 0,0 UV-I 0 W/m 2,9 C 4,1 C 0,0 km/h (0 Bft) 89 %
17.10.2021 06:00 4,2 C 3,9 C 4,2 C 4,2 C 12,8 C 3,9 C 92 % 93 % 15 lf 178 cb 1019,5 hPa 0,0 mm 0,2 km/h (0 Bft) O 101 0 min 0,000 mm 0,0 UV-I 0 W/m 3,0 C 4,2 C 2,1 km/h (1 Bft) 99 %
17.10.2021 05:50 4,2 C 3,9 C 4,2 C 4,2 C 12,8 C 3,9 C 92 % 93 % 15 lf 178 cb 1019,4 hPa 0,0 mm 0,9 km/h (0 Bft) O 101 0 min 0,000 mm 0,0 UV-I 0 W/m 3,0 C 4,2 C 4,1 km/h (1 Bft) 100 %
17.10.2021 05:40 4,2 C 3,9 C 4,1 C 4,2 C 12,8 C 3,9 C 92 % 93 % 15 lf 178 cb 1019,6 hPa 0,0 mm 1,2 km/h (1 Bft) O 101 0 min 0,000 mm 0,0 UV-I 0 W/m 3,0 C 4,2 C 4,1 km/h (1 Bft) 100 %
17.10.2021 05:30 4,1 C 3,9 C 4,1 C 4,1 C 12,8 C 3,3 C 92 % 93 % 15 lf 178 cb 1019,6 hPa 0,0 mm 0,9 km/h (0 Bft) O 101 0 min 0,000 mm 0,0 UV-I 0 W/m 2,9 C 4,1 C 4,1 km/h (1 Bft) 100 %
17.10.2021 05:20 4,1 C 3,9 C 4,1 C 4,1 C 12,8 C 3,3 C 92 % 93 % 15 lf 178 cb 1019,6 hPa 0,0 mm 0,0 km/h (0 Bft) O 101 0 min 0,000 mm 0,0 UV-I 0 W/m 2,9 C 4,1 C 0,0 km/h (0 Bft) 100 %
17.10.2021 05:10 4,1 C 3,9 C 4,1 C 4,1 C 12,8 C 3,3 C 92 % 93 % 15 lf 178 cb 1019,7 hPa 0,0 mm 0,0 km/h (0 Bft) O 101 0 min 0,000 mm 0,0 UV-I 0 W/m 2,9 C 4,1 C 0,0 km/h (0 Bft) 100 %
17.10.2021 05:00 4,1 C 3,9 C 4,1 C 4,1 C 12,8 C 3,9 C 92 % 93 % 15 lf 178 cb 1019,7 hPa 0,0 mm 0,0 km/h (0 Bft) O 101 0 min 0,000 mm 0,0 UV-I 0 W/m 2,9 C 4,1 C 0,0 km/h (0 Bft) 100 %
17.10.2021 04:50 4,1 C 3,3 C 4,0 C 4,1 C 12,8 C 3,3 C 91 % 93 % 15 lf 178 cb 1019,7 hPa 0,0 mm 0,5 km/h (0 Bft) O 101 0 min 0,000 mm 0,0 UV-I 0 W/m 2,8 C 4,1 C 4,1 km/h (1 Bft) 100 %
17.10.2021 04:40 4,0 C 3,3 C 3,9 C 4,0 C 12,8 C 3,3 C 91 % 93 % 15 lf 179 cb 1019,8 hPa 0,0 mm 0,8 km/h (0 Bft) O 101 0 min 0,000 mm 0,0 UV-I 0 W/m 2,7 C 4,0 C 4,1 km/h (1 Bft) 100 %
17.10.2021 04:30 3,9 C 3,3 C 3,9 C 3,9 C 12,8 C 3,3 C 91 % 93 % 15 lf 179 cb 1019,9 hPa 0,0 mm 0,0 km/h (0 Bft) O 101 0 min 0,000 mm 0,0 UV-I 0 W/m 2,6 C 3,9 C 0,0 km/h (0 Bft) 91 %
17.10.2021 04:20 3,9 C 3,3 C 3,8 C 3,9 C 12,8 C 3,3 C 91 % 93 % 15 lf 179 cb 1019,9 hPa 0,0 mm 0,0 km/h (0 Bft) O 101 0 min 0,000 mm 0,0 UV-I 0 W/m 2,6 C 3,9 C 0,0 km/h (0 Bft) 100 %
17.10.2021 04:10 3,9 C 3,3 C 3,8 C 3,9 C 12,8 C 3,3 C 91 % 93 % 15 lf 179 cb 1019,9 hPa 0,0 mm 0,6 km/h (0 Bft) O 101 0 min 0,000 mm 0,0 UV-I 0 W/m 2,6 C 3,9 C 4,1 km/h (1 Bft) 99 %
17.10.2021 04:00 3,8 C 3,3 C 3,8 C 3,9 C 12,8 C 3,3 C 90 % 93 % 15 lf 179 cb 1020,0 hPa 0,0 mm 0,0 km/h (0 Bft) O 101 0 min 0,000 mm 0,0 UV-I 0 W/m 2,3 C 3,8 C 0,0 km/h (0 Bft) 100 %
17.10.2021 03:50 3,9 C 3,3 C 3,9 C 3,9 C 12,8 C 3,3 C 90 % 93 % 15 lf 179 cb 1020,1 hPa 0,0 mm 0,0 km/h (0 Bft) O 101 0 min 0,000 mm 0,0 UV-I 0 W/m 2,4 C 3,9 C 0,0 km/h (0 Bft) 100 %
17.10.2021 03:40 3,9 C 3,9 C 3,9 C 4,0 C 12,8 C 2,8 C 90 % 93 % 15 lf 179 cb 1020,1 hPa 0,0 mm 0,0 km/h (0 Bft) O 101 0 min 0,000 mm 0,0 UV-I 0 W/m 2,4 C 3,9 C 0,0 km/h (0 Bft) 100 %
17.10.2021 03:30 3,9 C 3,9 C 3,9 C 4,1 C 12,8 C 2,8 C 90 % 93 % 15 lf 179 cb 1020,3 hPa 0,0 mm 0,0 km/h (0 Bft) O 101 0 min 0,000 mm 0,0 UV-I 0 W/m 2,4 C 3,9 C 0,0 km/h (0 Bft) 100 %
17.10.2021 03:20 4,1 C 3,9 C 4,1 C 4,1 C 12,8 C 2,8 C 90 % 93 % 15 lf 179 cb 1020,3 hPa 0,0 mm 0,0 km/h (0 Bft) O 101 0 min 0,000 mm 0,0 UV-I 0 W/m 2,6 C 4,1 C 0,0 km/h (0 Bft) 100 %
17.10.2021 03:10 4,1 C 3,9 C 4,1 C 4,2 C 12,8 C 2,8 C 90 % 93 % 15 lf 179 cb 1020,5 hPa 0,0 mm 0,0 km/h (0 Bft) O 101 0 min 0,000 mm 0,0 UV-I 0 W/m 2,6 C 4,1 C 0,0 km/h (0 Bft) 100 %
17.10.2021 03:00 4,2 C 3,9 C 4,2 C 4,3 C 12,8 C 2,8 C 90 % 93 % 15 lf 179 cb 1020,4 hPa 0,0 mm 0,0 km/h (0 Bft) O 101 0 min 0,000 mm 0,0 UV-I 0 W/m 2,7 C 4,2 C 0,0 km/h (0 Bft) 100 %
17.10.2021 02:50 4,3 C 3,9 C 4,3 C 4,4 C 12,8 C 2,8 C 90 % 93 % 15 lf 179 cb 1020,4 hPa 0,0 mm 0,0 km/h (0 Bft) O 101 0 min 0,000 mm 0,0 UV-I 0 W/m 2,8 C 4,3 C 0,0 km/h (0 Bft) 100 %
17.10.2021 02:40 4,4 C 3,9 C 4,4 C 4,4 C 12,8 C 2,8 C 90 % 93 % 15 lf 179 cb 1020,4 hPa 0,0 mm 0,0 km/h (0 Bft) O 101 0 min 0,000 mm 0,0 UV-I 0 W/m 2,9 C 4,4 C 0,0 km/h (0 Bft) 100 %
17.10.2021 02:30 4,4 C 4,4 C 4,4 C 4,5 C 12,8 C 2,8 C 90 % 93 % 15 lf 179 cb 1020,3 hPa 0,0 mm 0,0 km/h (0 Bft) O 101 0 min 0,000 mm 0,0 UV-I 0 W/m 2,9 C 4,4 C 0,0 km/h (0 Bft) 100 %
17.10.2021 02:20 4,5 C 4,4 C 4,5 C 4,6 C 12,8 C 2,8 C 90 % 93 % 15 lf 179 cb 1020,3 hPa 0,0 mm 0,0 km/h (0 Bft) O 101 0 min 0,000 mm 0,0 UV-I 0 W/m 3,0 C 4,5 C 0,0 km/h (0 Bft) 100 %
17.10.2021 02:10 4,6 C 4,4 C 4,6 C 4,6 C 12,8 C 3,3 C 90 % 93 % 15 lf 179 cb 1020,2 hPa 0,0 mm 0,0 km/h (0 Bft) O 101 0 min 0,000 mm 0,0 UV-I 0 W/m 3,1 C 4,6 C 0,0 km/h (0 Bft) 99 %
17.10.2021 02:00 4,6 C 4,4 C 4,6 C 4,7 C 12,8 C 3,3 C 90 % 93 % 15 lf 180 cb 1020,1 hPa 0,0 mm 0,0 km/h (0 Bft) O 101 0 min 0,000 mm 0,0 UV-I 0 W/m 3,1 C 4,6 C 0,0 km/h (0 Bft) 100 %
17.10.2021 01:50 4,7 C 4,4 C 4,7 C 4,7 C 12,8 C 3,3 C 90 % 93 % 15 lf 180 cb 1020,1 hPa 0,0 mm 0,0 km/h (0 Bft) O 101 0 min 0,000 mm 0,0 UV-I 0 W/m 3,2 C 4,7 C 0,0 km/h (0 Bft) 100 %
17.10.2021 01:40 4,7 C 4,4 C 4,7 C 4,8 C 12,8 C 3,3 C 89 % 93 % 15 lf 180 cb 1020,3 hPa 0,0 mm 0,0 km/h (0 Bft) O 101 0 min 0,000 mm 0,0 UV-I 0 W/m 3,0 C 4,7 C 0,0 km/h (0 Bft) 99 %
17.10.2021 01:30 4,8 C 4,4 C 4,8 C 4,8 C 12,8 C 3,3 C 89 % 93 % 15 lf 180 cb 1020,3 hPa 0,0 mm 0,0 km/h (0 Bft) O 101 0 min 0,000 mm 0,0 UV-I 0 W/m 3,1 C 4,8 C 0,0 km/h (0 Bft) 98 %
17.10.2021 01:20 4,8 C 4,4 C 4,8 C 4,8 C 12,8 C 3,3 C 89 % 93 % 15 lf 180 cb 1020,1 hPa 0,0 mm 0,0 km/h (0 Bft) O 101 0 min 0,000 mm 0,0 UV-I 0 W/m 3,1 C 4,8 C 0,0 km/h (0 Bft) 97 %
17.10.2021 01:10 4,8 C 4,4 C 4,8 C 4,9 C 12,8 C 3,3 C 89 % 93 % 15 lf 180 cb 1020,0 hPa 0,0 mm 0,0 km/h (0 Bft) O 101 0 min 0,000 mm 0,0 UV-I 0 W/m 3,1 C 4,8 C 0,0 km/h (0 Bft) 98 %
17.10.2021 01:00 4,8 C 4,4 C 4,8 C 4,9 C 12,8 C 3,3 C 89 % 93 % 15 lf 180 cb 1020,0 hPa 0,0 mm 0,0 km/h (0 Bft) O 101 0 min 0,000 mm 0,0 UV-I 0 W/m 3,1 C 4,8 C 0,0 km/h (0 Bft) 98 %
17.10.2021 00:50 4,8 C 4,4 C 4,8 C 4,9 C 12,8 C 3,3 C 89 % 93 % 15 lf 180 cb 1020,2 hPa 0,0 mm 0,0 km/h (0 Bft) O 101 0 min 0,000 mm 0,0 UV-I 0 W/m 3,1 C 4,8 C 0,0 km/h (0 Bft) 97 %
17.10.2021 00:45 4,9 C 4,4 C 4,8 C 4,9 C 12,8 C 3,3 C 88 % 93 % 15 lf 180 cb 1020,2 hPa 0,0 mm 0,0 km/h (0 Bft) O 101 0 min 0,000 mm 0,0 UV-I 0 W/m 3,1 C 4,9 C 0,0 km/h (0 Bft) 98 %
17.10.2021 00:30 4,9 C 4,4 C 4,9 C 5,0 C 12,8 C 3,3 C 88 % 93 % 15 lf 180 cb 1020,5 hPa 0,0 mm 0,0 km/h (0 Bft) O 101 0 min 0,000 mm 0,0 UV-I 0 W/m 3,1 C 4,9 C 0,0 km/h (0 Bft) 97 %
17.10.2021 00:20 5,0 C 4,4 C 5,0 C 5,1 C 12,8 C 3,3 C 87 % 93 % 15 lf 182 cb 1020,6 hPa 0,0 mm 0,0 km/h (0 Bft) O 101 0 min 0,000 mm 0,0 UV-I 0 W/m 3,0 C 5,0 C 0,0 km/h (0 Bft) 98 %
17.10.2021 00:10 5,1 C 4,4 C 5,1 C 5,3 C 12,8 C 3,3 C 87 % 93 % 15 lf 182 cb 1020,6 hPa 0,0 mm 0,0 km/h (0 Bft) O 101 0 min 0,000 mm 0,0 UV-I 0 W/m 3,1 C 5,1 C 0,0 km/h (0 Bft) 96 %
17.10.2021 00:00 5,3 C 4,4 C 5,2 C 5,3 C 12,8 C 3,3 C 87 % 93 % 15 lf 182 cb 1020,7 hPa 0,0 mm 0,0 km/h (0 Bft) N 0 0 min 0,000 mm 0,0 UV-I 0 W/m 3,3 C 5,3 C 0,0 km/h (0 Bft) 100 %
16.10.2021 23:50 5,3 C 5,0 C 5,3 C 5,4 C 12,8 C 3,3 C 87 % 93 % 15 lf 182 cb 1020,9 hPa 0,0 mm 0,0 km/h (0 Bft) O 101 0 min 0,000 mm 0,0 UV-I 0 W/m 3,3 C 5,3 C 0,0 km/h (0 Bft) 99 %
16.10.2021 23:40 5,4 C 5,0 C 5,4 C 5,5 C 12,8 C 3,9 C 87 % 93 % 15 lf 182 cb 1020,9 hPa 0,0 mm 0,0 km/h (0 Bft) O 101 0 min 0,000 mm 0,0 UV-I 0 W/m 3,4 C 5,4 C 0,0 km/h (0 Bft) 100 %
16.10.2021 23:30 5,5 C 5,0 C 5,5 C 5,6 C 12,8 C 3,9 C 87 % 93 % 15 lf 182 cb 1020,8 hPa 0,0 mm 0,0 km/h (0 Bft) O 101 0 min 0,000 mm 0,0 UV-I 0 W/m 3,5 C 5,5 C 0,0 km/h (0 Bft) 99 %
16.10.2021 23:20 5,6 C 5,0 C 5,6 C 5,7 C 12,8 C 3,9 C 87 % 92 % 15 lf 182 cb 1020,8 hPa 0,0 mm 0,0 km/h (0 Bft) O 101 0 min 0,000 mm 0,0 UV-I 0 W/m 3,6 C 5,6 C 0,0 km/h (0 Bft) 99 %
16.10.2021 23:10 5,7 C 5,0 C 5,7 C 5,8 C 12,8 C 3,9 C 86 % 92 % 15 lf 182 cb 1020,6 hPa 0,0 mm 0,0 km/h (0 Bft) O 101 0 min 0,000 mm 0,0 UV-I 0 W/m 3,5 C 5,7 C 0,0 km/h (0 Bft) 100 %
16.10.2021 23:00 5,8 C 5,0 C 5,8 C 5,9 C 12,8 C 3,9 C 86 % 92 % 15 lf 182 cb 1020,6 hPa 0,0 mm 0,0 km/h (0 Bft) O 101 0 min 0,000 mm 0,0 UV-I 0 W/m 3,6 C 5,8 C 0,0 km/h (0 Bft) 99 %
16.10.2021 22:50 5,9 C 5,0 C 5,9 C 6,1 C 12,8 C 3,9 C 86 % 92 % 15 lf 183 cb 1020,7 hPa 0,0 mm 0,0 km/h (0 Bft) O 101 0 min 0,000 mm 0,0 UV-I 0 W/m 3,7 C 5,9 C 0,0 km/h (0 Bft) 97 %
16.10.2021 22:40 6,1 C 5,0 C 6,1 C 6,2 C 12,8 C 3,9 C 86 % 92 % 14 lf 183 cb 1020,7 hPa 0,0 mm 0,0 km/h (0 Bft) O 101 0 min 0,000 mm 0,0 UV-I 0 W/m 3,9 C 6,1 C 0,0 km/h (0 Bft) 98 %
16.10.2021 22:30 6,2 C 5,0 C 6,2 C 6,4 C 12,8 C 3,9 C 85 % 92 % 14 lf 183 cb 1020,7 hPa 0,0 mm 0,0 km/h (0 Bft) O 101 0 min 0,000 mm 0,0 UV-I 0 W/m 3,9 C 6,2 C 0,0 km/h (0 Bft) 97 %
16.10.2021 22:20 6,4 C 5,6 C 6,4 C 6,6 C 12,8 C 3,9 C 85 % 91 % 14 lf 183 cb 1020,7 hPa 0,0 mm 0,0 km/h (0 Bft) O 101 0 min 0,000 mm 0,0 UV-I 0 W/m 4,1 C 6,4 C 0,0 km/h (0 Bft) 97 %
16.10.2021 22:10 6,6 C 5,6 C 6,6 C 6,7 C 12,8 C 3,9 C 85 % 91 % 13 lf 183 cb 1020,6 hPa 0,0 mm 0,0 km/h (0 Bft) O 101 0 min 0,000 mm 0,0 UV-I 0 W/m 4,3 C 6,6 C 0,0 km/h (0 Bft) 97 %
16.10.2021 22:00 6,7 C 5,6 C 6,7 C 7,2 C 12,8 C 3,9 C 85 % 91 % 13 lf 183 cb 1020,7 hPa 0,0 mm 0,0 km/h (0 Bft) O 101 0 min 0,000 mm 0,0 UV-I 0 W/m 4,4 C 6,7 C 0,0 km/h (0 Bft) 97 %
16.10.2021 21:50 6,9 C 6,1 C 6,9 C 7,2 C 12,8 C 4,4 C 84 % 91 % 12 lf 183 cb 1020,8 hPa 0,0 mm 0,0 km/h (0 Bft) O 101 0 min 0,000 mm 0,0 UV-I 0 W/m 4,4 C 6,9 C 0,0 km/h (0 Bft) 98 %
16.10.2021 21:40 7,1 C 6,1 C 7,1 C 7,2 C 12,8 C 4,4 C 84 % 91 % 11 lf 184 cb 1020,7 hPa 0,0 mm 0,0 km/h (0 Bft) O 101 0 min 0,000 mm 0,0 UV-I 0 W/m 4,6 C 7,1 C 0,0 km/h (0 Bft) 97 %
16.10.2021 21:30 7,2 C 6,1 C 7,2 C 7,4 C 12,8 C 4,4 C 84 % 91 % 10 lf 184 cb 1020,8 hPa 0,0 mm 0,0 km/h (0 Bft) O 101 0 min 0,000 mm 0,0 UV-I 0 W/m 4,7 C 7,2 C 0,0 km/h (0 Bft) 98 %
16.10.2021 21:20 7,4 C 6,1 C 7,4 C 7,6 C 12,8 C 4,4 C 83 % 90 % 9 lf 184 cb 1020,6 hPa 0,0 mm 0,0 km/h (0 Bft) O 101 0 min 0,000 mm 0,0 UV-I 0 W/m 4,7 C 7,4 C 0,0 km/h (0 Bft) 97 %
16.10.2021 21:10 7,6 C 6,7 C 7,6 C 7,7 C 12,8 C 4,4 C 83 % 90 % 7 lf 184 cb 1020,7 hPa 0,0 mm 0,0 km/h (0 Bft) O 101 0 min 0,000 mm 0,0 UV-I 0 W/m 4,9 C 7,6 C 0,0 km/h (0 Bft) 98 %
16.10.2021 21:00 7,7 C 6,7 C 7,7 C 7,9 C 12,8 C 5,0 C 82 % 90 % 6 lf 184 cb 1020,8 hPa 0,0 mm 0,0 km/h (0 Bft) O 101 0 min 0,000 mm 0,0 UV-I 0 W/m 4,8 C 7,7 C 0,0 km/h (0 Bft) 97 %
16.10.2021 20:50 7,9 C 6,7 C 7,9 C 8,2 C 12,8 C 5,0 C 82 % 89 % 4 lf 184 cb 1021,0 hPa 0,0 mm 0,0 km/h (0 Bft) O 101 0 min 0,000 mm 0,0 UV-I 0 W/m 5,0 C 7,9 C 0,0 km/h (0 Bft) 98 %
16.10.2021 20:40 8,2 C 6,7 C 8,2 C 8,5 C 13,3 C 5,0 C 81 % 89 % 3 lf 187 cb 1020,8 hPa 0,0 mm 0,0 km/h (0 Bft) O 101 0 min 0,000 mm 0,0 UV-I 0 W/m 5,1 C 8,2 C 0,0 km/h (0 Bft) 98 %
16.10.2021 20:30 8,5 C 7,2 C 8,5 C 8,8 C 13,3 C 5,0 C 80 % 88 % 3 lf 187 cb 1020,8 hPa 0,0 mm 0,0 km/h (0 Bft) O 101 0 min 0,000 mm 0,0 UV-I 0 W/m 5,3 C 8,5 C 0,0 km/h (0 Bft) 97 %
16.10.2021 20:20 8,8 C 7,2 C 8,8 C 9,1 C 13,3 C 5,6 C 80 % 87 % 2 lf 187 cb 1020,7 hPa 0,0 mm 0,0 km/h (0 Bft) O 101 0 min 0,000 mm 0,0 UV-I 0 W/m 5,5 C 8,8 C 0,0 km/h (0 Bft) 97 %
16.10.2021 20:10 9,1 C 7,8 C 9,1 C 9,4 C 13,3 C 5,6 C 79 % 87 % 1 lf 187 cb 1020,9 hPa 0,0 mm 0,0 km/h (0 Bft) O 101 0 min 0,000 mm 0,0 UV-I 0 W/m 5,7 C 9,1 C 0,0 km/h (0 Bft) 97 %
16.10.2021 20:00 9,4 C 7,8 C 9,4 C 9,7 C 13,3 C 6,1 C 77 % 86 % 1 lf 187 cb 1020,7 hPa 0,0 mm 0,0 km/h (0 Bft) O 101 0 min 0,000 mm 0,0 UV-I 0 W/m 5,6 C 9,4 C 0,0 km/h (0 Bft) 97 %
16.10.2021 19:50 9,7 C 8,3 C 9,7 C 9,9 C 13,3 C 6,1 C 76 % 86 % 1 lf 187 cb 1020,7 hPa 0,0 mm 0,0 km/h (0 Bft) O 101 0 min 0,000 mm 0,0 UV-I 0 W/m 5,7 C 9,7 C 0,0 km/h (0 Bft) 97 %
16.10.2021 19:40 9,9 C 8,3 C 9,9 C 10,2 C 13,3 C 6,1 C 76 % 84 % 0 lf 187 cb 1020,7 hPa 0,0 mm 0,0 km/h (0 Bft) O 101 0 min 0,000 mm 0,0 UV-I 0 W/m 5,9 C 9,9 C 0,0 km/h (0 Bft) 96 %
16.10.2021 19:30 10,2 C 8,3 C 10,2 C 10,4 C 13,3 C 6,7 C 75 % 83 % 0 lf 187 cb 1020,6 hPa 0,0 mm 0,0 km/h (0 Bft) O 101 0 min 0,000 mm 0,0 UV-I 0 W/m 6,0 C 10,2 C 0,0 km/h (0 Bft) 95 %
16.10.2021 19:20 10,4 C 8,9 C 10,4 C 10,6 C 13,3 C 6,7 C 75 % 81 % 0 lf 187 cb 1020,5 hPa 0,0 mm 0,0 km/h (0 Bft) O 101 0 min 0,000 mm 0,0 UV-I 0 W/m 6,2 C 10,4 C 0,0 km/h (0 Bft) 96 %
16.10.2021 19:10 10,6 C 9,4 C 10,6 C 10,8 C 13,3 C 6,7 C 75 % 80 % 0 lf 187 cb 1020,4 hPa 0,0 mm 0,0 km/h (0 Bft) O 101 0 min 0,000 mm 0,0 UV-I 0 W/m 6,4 C 10,6 C 0,0 km/h (0 Bft) 94 %
16.10.2021 19:00 10,8 C 9,4 C 10,8 C 11,1 C 13,3 C 7,2 C 74 % 80 % 0 lf 187 cb 1020,3 hPa 0,0 mm 0,1 km/h (0 Bft) O 101 0 min 0,000 mm 0,0 UV-I 0 W/m 6,4 C 10,8 C 2,1 km/h (1 Bft) 96 %
16.10.2021 18:50 11,1 C 9,4 C 11,1 C 11,3 C 13,3 C 7,2 C 73 % 79 % 0 lf 187 cb 1020,2 hPa 0,0 mm 0,8 km/h (0 Bft) O 101 0 min 0,000 mm 0,0 UV-I 0 W/m 6,4 C 11,1 C 4,1 km/h (1 Bft) 95 %
16.10.2021 18:40 11,3 C 10,0 C 11,3 C 11,6 C 13,3 C 7,2 C 72 % 77 % 0 lf 187 cb 1020,2 hPa 0,0 mm 0,9 km/h (0 Bft) O 101 0 min 0,000 mm 0,0 UV-I 0 W/m 6,4 C 11,3 C 4,1 km/h (1 Bft) 95 %
16.10.2021 18:30 11,6 C 10,6 C 11,6 C 11,8 C 13,3 C 7,8 C 70 % 75 % 0 lf 187 cb 1020,4 hPa 0,0 mm 0,2 km/h (0 Bft) O 101 0 min 0,000 mm 0,0 UV-I 4 W/m 6,3 C 11,6 C 2,1 km/h (1 Bft) 95 %
16.10.2021 18:20 11,8 C 10,6 C 11,8 C 11,9 C 13,3 C 7,8 C 70 % 74 % 0 lf 187 cb 1020,5 hPa 0,0 mm 0,0 km/h (0 Bft) O 101 0 min 0,000 mm 0,0 UV-I 7 W/m 6,5 C 11,8 C 0,0 km/h (0 Bft) 95 %
16.10.2021 18:10 11,9 C 10,6 C 11,9 C 12,2 C 13,3 C 8,3 C 69 % 73 % 0 lf 187 cb 1020,5 hPa 0,0 mm 0,9 km/h (0 Bft) O 101 0 min 0,000 mm 0,0 UV-I 7 W/m 6,4 C 11,9 C 4,1 km/h (1 Bft) 96 %
16.10.2021 18:00 12,2 C 11,1 C 12,2 C 12,4 C 13,3 C 8,9 C 68 % 72 % 0 lf 187 cb 1020,5 hPa 0,0 mm 0,9 km/h (0 Bft) O 101 0 min 0,000 mm 0,0 UV-I 10 W/m 6,5 C 12,2 C 4,1 km/h (1 Bft) 97 %
16.10.2021 17:50 12,4 C 11,1 C 12,4 C 12,6 C 13,3 C 9,4 C 66 % 70 % 0 lf 187 cb 1020,6 hPa 0,0 mm 0,0 km/h (0 Bft) O 101 0 min 0,000 mm 0,0 UV-I 13 W/m 6,2 C 12,4 C 0,0 km/h (0 Bft) 98 %
16.10.2021 17:40 12,6 C 11,7 C 12,6 C 12,6 C 13,3 C 10,0 C 66 % 69 % 0 lf 187 cb 1020,7 hPa 0,0 mm 0,0 km/h (0 Bft) O 101 0 min 0,000 mm 0,0 UV-I 19 W/m 6,4 C 12,6 C 0,0 km/h (0 Bft) 97 %
16.10.2021 17:30 12,6 C 11,7 C 12,6 C 12,7 C 13,3 C 11,1 C 66 % 69 % 0 lf 187 cb 1020,9 hPa 0,0 mm 0,0 km/h (0 Bft) O 101 0 min 0,000 mm 0,0 UV-I 37 W/m 6,4 C 12,6 C 0,0 km/h (0 Bft) 97 %
16.10.2021 17:20 12,7 C 12,2 C 12,7 C 12,7 C 13,3 C 11,7 C 65 % 69 % 0 lf 187 cb 1020,8 hPa 0,0 mm 0,0 km/h (0 Bft) O 101 0 min 0,000 mm 0,0 UV-I 38 W/m 6,3 C 12,7 C 0,0 km/h (0 Bft) 99 %
16.10.2021 17:10 12,7 C 12,2 C 12,7 C 12,8 C 13,3 C 11,7 C 64 % 68 % 0 lf 187 cb 1020,9 hPa 0,0 mm 0,0 km/h (0 Bft) O 101 0 min 0,000 mm 0,0 UV-I 39 W/m 6,1 C 12,7 C 0,0 km/h (0 Bft) 100 %
16.10.2021 17:00 12,8 C 12,2 C 12,8 C 12,8 C 13,3 C 11,7 C 65 % 67 % 0 lf 187 cb 1020,9 hPa 0,0 mm 0,2 km/h (0 Bft) O 101 0 min 0,051 mm 0,0 UV-I 39 W/m 6,4 C 12,8 C 2,1 km/h (1 Bft) 99 %
16.10.2021 16:50 12,8 C 12,2 C 12,7 C 12,8 C 13,3 C 11,7 C 64 % 67 % 0 lf 187 cb 1020,8 hPa 0,0 mm 0,2 km/h (0 Bft) O 101 0 min 0,000 mm 0,0 UV-I 51 W/m 6,2 C 12,8 C 2,1 km/h (1 Bft) 99 %
16.10.2021 16:40 12,8 C 12,2 C 12,7 C 12,8 C 13,3 C 11,7 C 65 % 67 % 0 lf 187 cb 1020,9 hPa 0,0 mm 0,0 km/h (0 Bft) O 101 0 min 0,000 mm 0,0 UV-I 48 W/m 6,4 C 12,8 C 0,0 km/h (0 Bft) 99 %
16.10.2021 16:30 12,7 C 12,2 C 12,7 C 12,7 C 13,3 C 11,7 C 63 % 66 % 0 lf 187 cb 1020,8 hPa 0,0 mm 0,6 km/h (0 Bft) O 101 0 min 0,000 mm 0,0 UV-I 53 W/m 5,8 C 12,7 C 2,1 km/h (1 Bft) 99 %
16.10.2021 16:20 12,7 C 12,2 C 12,6 C 12,7 C 13,3 C 11,7 C 62 % 65 % 0 lf 187 cb 1020,8 hPa 0,0 mm 2,1 km/h (1 Bft) O 101 0 min 0,000 mm 0,0 UV-I 57 W/m 5,6 C 12,7 C 6,2 km/h (2 Bft) 100 %
16.10.2021 16:10 12,6 C 12,2 C 12,6 C 12,6 C 13,3 C 12,2 C 61 % 61 % 0 lf 186 cb 1020,9 hPa 0,0 mm 1,8 km/h (1 Bft) O 99 0 min 0,000 mm 0,0 UV-I 65 W/m 5,3 C 12,6 C 6,2 km/h (2 Bft) 100 %
16.10.2021 16:00 12,6 C 12,8 C 12,6 C 12,6 C 13,3 C 12,2 C 63 % 63 % 0 lf 187 cb 1021,0 hPa 0,0 mm 2,5 km/h (1 Bft) O-SO 123 0 min 0,051 mm 0,0 UV-I 74 W/m 5,7 C 12,6 C 6,2 km/h (2 Bft) 100 %
16.10.2021 15:50 12,6 C 12,8 C 12,6 C 12,7 C 13,3 C 12,2 C 64 % 67 % 0 lf 186 cb 1021,0 hPa 0,0 mm 3,2 km/h (1 Bft) SO 127 0 min 0,000 mm 0,5 UV-I 72 W/m 6,0 C 12,6 C 6,2 km/h (2 Bft) 100 %
16.10.2021 15:40 12,7 C 12,8 C 12,7 C 12,7 C 13,3 C 12,2 C 65 % 65 % 0 lf 186 cb 1021,1 hPa 0,0 mm 2,4 km/h (1 Bft) O 96 0 min 0,000 mm 0,5 UV-I 63 W/m 6,3 C 12,7 C 6,2 km/h (2 Bft) 100 %
16.10.2021 15:35 12,7 C 12,8 C 12,7 C 12,7 C 13,3 C 11,7 C 64 % 66 % 0 lf 186 cb 1021,2 hPa 0,0 mm 2,4 km/h (1 Bft) O 96 0 min 0,000 mm 0,4 UV-I 61 W/m 6,1 C 12,7 C 8,3 km/h (2 Bft) 100 %
16.10.2021 15:20 12,7 C 12,8 C 12,7 C 12,7 C 13,3 C 11,7 C 63 % 64 % 0 lf 186 cb 1021,3 hPa 0,0 mm 2,3 km/h (1 Bft) O-SO 106 0 min 0,000 mm 0,2 UV-I 54 W/m 5,8 C 12,7 C 8,3 km/h (2 Bft) 100 %
16.10.2021 15:10 12,7 C 13,3 C 12,7 C 12,8 C 13,3 C 11,7 C 62 % 61 % 0 lf 186 cb 1021,2 hPa 0,0 mm 2,5 km/h (1 Bft) O 95 0 min 0,000 mm 0,3 UV-I 57 W/m 5,6 C 12,7 C 6,2 km/h (2 Bft) 99 %
16.10.2021 15:00 12,7 C 13,3 C 12,7 C 12,8 C 13,3 C 11,7 C 61 % 60 % 0 lf 186 cb 1021,3 hPa 0,0 mm 4,2 km/h (1 Bft) O-SO 105 0 min 0,127 mm 0,7 UV-I 66 W/m 5,4 C 12,7 C 8,3 km/h (2 Bft) 100 %
16.10.2021 14:50 12,7 C 13,3 C 12,7 C 12,8 C 13,3 C 11,7 C 62 % 63 % 0 lf 186 cb 1021,3 hPa 0,0 mm 3,4 km/h (1 Bft) SO 126 0 min 0,000 mm 0,6 UV-I 88 W/m 5,6 C 12,7 C 8,3 km/h (2 Bft) 99 %
16.10.2021 14:40 12,7 C 13,3 C 12,7 C 12,7 C 13,3 C 12,2 C 61 % 61 % 0 lf 186 cb 1021,4 hPa 0,0 mm 3,5 km/h (1 Bft) O-SO 120 10 min 0,000 mm 1,0 UV-I 317 W/m 5,4 C 12,7 C 8,3 km/h (2 Bft) 99 %
16.10.2021 14:30 12,7 C 12,8 C 12,7 C 13,0 C 13,3 C 13,3 C 62 % 63 % 0 lf 186 cb 1021,6 hPa 0,0 mm 2,8 km/h (1 Bft) SO 141 10 min 0,000 mm 1,1 UV-I 327 W/m 5,6 C 12,7 C 6,2 km/h (2 Bft) 100 %
16.10.2021 14:20 13,0 C 12,8 C 13,0 C 13,1 C 13,3 C 15,0 C 63 % 64 % 0 lf 186 cb 1021,7 hPa 0,0 mm 0,8 km/h (0 Bft) SO 132 0 min 0,000 mm 0,7 UV-I 146 W/m 6,1 C 13,0 C 4,1 km/h (1 Bft) 100 %
16.10.2021 14:10 13,0 C 12,2 C 13,0 C 13,3 C 13,3 C 15,0 C 62 % 65 % 0 lf 186 cb 1021,8 hPa 0,0 mm 0,5 km/h (0 Bft) SO 133 0 min 0,076 mm 0,6 UV-I 141 W/m 5,9 C 13,0 C 2,1 km/h (1 Bft) 100 %
16.10.2021 14:00 13,3 C 12,2 C 13,3 C 13,5 C 13,3 C 13,9 C 59 % 63 % 0 lf 186 cb 1021,8 hPa 0,0 mm 0,7 km/h (0 Bft) SO 133 0 min 0,000 mm 0,6 UV-I 122 W/m 5,5 C 13,3 C 4,1 km/h (1 Bft) 99 %
16.10.2021 13:50 13,3 C 12,2 C 13,2 C 13,3 C 13,3 C 13,9 C 64 % 69 % 0 lf 186 cb 1021,9 hPa 0,0 mm 0,0 km/h (0 Bft) SO 133 0 min 0,000 mm 0,5 UV-I 108 W/m 6,6 C 13,3 C 0,0 km/h (0 Bft) 100 %
16.10.2021 13:40 13,2 C 12,2 C 13,2 C 13,3 C 13,3 C 13,9 C 63 % 66 % 0 lf 186 cb 1021,9 hPa 0,0 mm 0,4 km/h (0 Bft) SO 133 0 min 0,000 mm 0,6 UV-I 106 W/m 6,3 C 13,2 C 4,1 km/h (1 Bft) 100 %
16.10.2021 13:30 13,2 C 12,2 C 13,1 C 13,2 C 13,3 C 13,9 C 62 % 66 % 0 lf 184 cb 1021,9 hPa 0,0 mm 0,2 km/h (0 Bft) SO 133 0 min 0,000 mm 0,7 UV-I 124 W/m 6,1 C 13,2 C 2,1 km/h (1 Bft) 100 %
16.10.2021 13:20 13,1 C 12,2 C 13,1 C 13,7 C 13,3 C 14,4 C 60 % 62 % 0 lf 184 cb 1022,0 hPa 0,0 mm 2,1 km/h (1 Bft) SO 133 0 min 0,000 mm 0,8 UV-I 150 W/m 5,5 C 13,1 C 6,2 km/h (2 Bft) 100 %
16.10.2021 13:10 13,7 C 12,8 C 13,7 C 14,2 C 13,3 C 15,6 C 64 % 66 % 0 lf 184 cb 1022,0 hPa 0,0 mm 2,3 km/h (1 Bft) S-SO 149 0 min 0,000 mm 1,0 UV-I 202 W/m 7,0 C 13,7 C 8,3 km/h (2 Bft) 100 %
16.10.2021 13:00 13,9 C 15,0 C 13,2 C 13,9 C 13,3 C 18,9 C 70 % 69 % 0 lf 184 cb 1022,1 hPa 0,0 mm 1,2 km/h (1 Bft) SO 124 10 min 0,228 mm 1,3 UV-I 475 W/m 8,5 C 13,9 C 6,2 km/h (2 Bft) 100 %
16.10.2021 12:50 13,4 C 13,9 C 13,0 C 13,4 C 13,3 C 19,4 C 69 % 69 % 0 lf 184 cb 1022,1 hPa 0,0 mm 2,0 km/h (1 Bft) SO 124 10 min 0,000 mm 1,3 UV-I 465 W/m 7,8 C 13,4 C 6,2 km/h (2 Bft) 100 %
16.10.2021 12:40 13,0 C 13,3 C 12,3 C 13,0 C 13,3 C 16,7 C 71 % 72 % 0 lf 184 cb 1022,2 hPa 0,0 mm 1,4 km/h (1 Bft) SO 124 10 min 0,000 mm 1,2 UV-I 459 W/m 7,9 C 13,0 C 6,2 km/h (2 Bft) 99 %
16.10.2021 12:30 12,3 C 12,8 C 12,2 C 12,3 C 13,3 C 16,7 C 71 % 71 % 0 lf 184 cb 1022,2 hPa 0,0 mm 3,1 km/h (1 Bft) SO 124 10 min 0,000 mm 1,2 UV-I 452 W/m 7,2 C 12,3 C 6,2 km/h (2 Bft) 100 %
16.10.2021 12:20 12,3 C 12,8 C 12,3 C 12,5 C 13,3 C 18,3 C 74 % 76 % 0 lf 183 cb 1022,3 hPa 0,0 mm 3,4 km/h (1 Bft) SO 140 10 min 0,000 mm 1,2 UV-I 443 W/m 7,8 C 12,3 C 8,3 km/h (2 Bft) 100 %
16.10.2021 12:10 12,4 C 13,3 C 11,9 C 12,4 C 13,3 C 21,1 C 77 % 76 % 0 lf 183 cb 1022,3 hPa 0,0 mm 2,1 km/h (1 Bft) O-SO 102 10 min 0,000 mm 1,1 UV-I 436 W/m 8,5 C 12,4 C 8,3 km/h (2 Bft) 100 %
16.10.2021 12:00 11,9 C 12,8 C 11,5 C 11,9 C 13,3 C 21,7 C 78 % 78 % 0 lf 183 cb 1022,2 hPa 0,0 mm 2,8 km/h (1 Bft) SO 131 10 min 0,204 mm 1,1 UV-I 427 W/m 8,2 C 11,9 C 8,3 km/h (2 Bft) 100 %
16.10.2021 11:50 11,5 C 12,2 C 11,2 C 11,5 C 13,3 C 21,7 C 80 % 79 % 0 lf 183 cb 1022,2 hPa 0,0 mm 3,0 km/h (1 Bft) O-SO 103 10 min 0,000 mm 1,0 UV-I 417 W/m 8,2 C 11,5 C 6,2 km/h (2 Bft) 99 %
16.10.2021 11:40 11,2 C 11,7 C 10,8 C 11,2 C 13,3 C 21,1 C 83 % 81 % 0 lf 182 cb 1022,1 hPa 0,0 mm 3,0 km/h (1 Bft) O-SO 120 10 min 0,000 mm 0,9 UV-I 404 W/m 8,4 C 11,2 C 6,2 km/h (2 Bft) 100 %
16.10.2021 11:30 10,8 C 11,1 C 10,5 C 10,8 C 13,3 C 19,4 C 85 % 84 % 0 lf 182 cb 1022,1 hPa 0,0 mm 3,0 km/h (1 Bft) S-SO 153 10 min 0,000 mm 0,9 UV-I 391 W/m 8,4 C 10,8 C 6,2 km/h (2 Bft) 100 %
16.10.2021 11:20 10,5 C 11,1 C 10,1 C 10,5 C 13,3 C 19,4 C 86 % 84 % 0 lf 182 cb 1022,1 hPa 0,0 mm 2,9 km/h (1 Bft) O-SO 109 10 min 0,000 mm 0,8 UV-I 376 W/m 8,3 C 10,5 C 8,3 km/h (2 Bft) 100 %
16.10.2021 11:10 10,1 C 10,6 C 9,5 C 10,1 C 13,3 C 18,3 C 87 % 85 % 0 lf 181 cb 1022,1 hPa 0,0 mm 3,3 km/h (1 Bft) O-SO 105 10 min 0,000 mm 0,8 UV-I 362 W/m 8,0 C 10,1 C 8,3 km/h (2 Bft) 99 %
16.10.2021 11:00 9,5 C 10,0 C 8,9 C 9,5 C 13,3 C 17,2 C 89 % 86 % 0 lf 181 cb 1022,0 hPa 0,0 mm 3,1 km/h (1 Bft) SO 131 10 min 0,127 mm 0,7 UV-I 345 W/m 7,8 C 9,5 C 8,3 km/h (2 Bft) 100 %
16.10.2021 10:50 8,9 C 9,4 C 8,1 C 8,9 C 13,3 C 16,1 C 90 % 87 % 0 lf 180 cb 1022,0 hPa 0,0 mm 1,5 km/h (1 Bft) O-SO 122 10 min 0,000 mm 0,6 UV-I 328 W/m 7,4 C 8,9 C 4,1 km/h (1 Bft) 99 %
16.10.2021 10:40 8,1 C 8,9 C 7,3 C 8,1 C 13,3 C 15,0 C 93 % 90 % 0 lf 180 cb 1022,1 hPa 0,0 mm 1,0 km/h (0 Bft) O-SO 123 10 min 0,000 mm 0,5 UV-I 306 W/m 7,0 C 8,1 C 4,1 km/h (1 Bft) 100 %
16.10.2021 10:30 7,3 C 7,8 C 6,6 C 7,3 C 13,3 C 13,9 C 93 % 92 % 15 lf 179 cb 1022,2 hPa 0,0 mm 1,7 km/h (1 Bft) O-SO 123 10 min 0,000 mm 0,5 UV-I 290 W/m 6,2 C 7,3 C 4,1 km/h (1 Bft) 98 %
16.10.2021 10:20 6,6 C 6,7 C 5,8 C 6,6 C 13,3 C 12,8 C 94 % 93 % 15 lf 177 cb 1022,1 hPa 0,0 mm 0,2 km/h (0 Bft) O-SO 123 10 min 0,000 mm 0,0 UV-I 284 W/m 5,7 C 6,6 C 4,1 km/h (1 Bft) 97 %
16.10.2021 10:10 5,8 C 6,1 C 4,6 C 5,8 C 13,3 C 11,7 C 94 % 93 % 15 lf 176 cb 1022,2 hPa 0,0 mm 0,0 km/h (0 Bft) O-SO 123 10 min 0,000 mm 0,0 UV-I 264 W/m 4,9 C 5,8 C 0,0 km/h (0 Bft) 98 %
16.10.2021 10:00 4,6 C 5,0 C 3,8 C 4,6 C 13,3 C 7,2 C 94 % 93 % 15 lf 176 cb 1022,1 hPa 0,0 mm 0,0 km/h (0 Bft) O-SO 123 0 min 0,025 mm 0,0 UV-I 134 W/m 3,7 C 4,6 C 0,0 km/h (0 Bft) 97 %
_ Min-Zeit 04:00 03:50 10:00 03:50 20:50 02:20 14:00 15:00 10:40 10:00 05:50 - 10:00 - - - - - - 04:00 04:00 10:00 06:10
Minimum _ 3,8 C 3,3 C 3,8 C 3,9 C 12,8 C 2,8 C 59 % 60 % 0 lf 176 cb 1019,4 hPa - 0,0 km/h (0 Bft) - - - - - - 2,3 C 3,8 C 0,0 km/h (0 Bft) 89 %
_ Max-Zeit 13:10 13:00 13:10 13:10 10:00 11:50 10:00 07:30 10:00 16:00 12:10 10:00 15:00 - - 10:10 13:00 12:50 13:00 13:00 13:00 11:00 11:30
Maximum _ 14,2 C 15,0 C 13,7 C 14,2 C 13,3 C 21,7 C 94 % 94 % 15 lf 187 cb 1022,3 hPa 0,0 mm 4,2 km/h
O-SO (1 Bft)
- - 10 min 0,228 mm 1,3 UV-I 475 W/m 8,5 C 13,9 C 8,3 km/h
S-SO (2 Bft)
100 %
Durchschnitt _ 7,7 C 7,3 C 7,6 C 7,8 C 13,1 C 7,7 C 82 % 85 % 9 lf 182 cb 1020,8 hPa #0,0 mm 0,6 km/h (0 Bft) O-SO - #0 min. #0,000 mm 0,0 UV-I 20 W/m 4,7 C 7,7 C 2,0 km/h (1 Bft) 98 %